sensor_id;sensor_type;location;lat;lon;timestamp;temperature;humidity
12115;DHT22;6121;49.810;6.418;2022-12-18T00:02:07;-7.50;99.90
12115;DHT22;6121;49.810;6.418;2022-12-18T00:04:32;-7.50;99.90
12115;DHT22;6121;49.810;6.418;2022-12-18T00:06:58;-7.30;99.90
12115;DHT22;6121;49.810;6.418;2022-12-18T00:09:24;-7.30;99.90
12115;DHT22;6121;49.810;6.418;2022-12-18T00:11:49;-7.50;99.90
12115;DHT22;6121;49.810;6.418;2022-12-18T00:14:15;-7.60;99.90
12115;DHT22;6121;49.810;6.418;2022-12-18T00:16:44;-7.70;99.90
12115;DHT22;6121;49.810;6.418;2022-12-18T00:19:10;-7.60;99.90
12115;DHT22;6121;49.810;6.418;2022-12-18T00:21:36;-7.70;99.90
12115;DHT22;6121;49.810;6.418;2022-12-18T00:24:01;-7.70;99.90
12115;DHT22;6121;49.810;6.418;2022-12-18T00:26:32;-7.70;99.90
12115;DHT22;6121;49.810;6.418;2022-12-18T00:28:59;-7.50;99.90
12115;DHT22;6121;49.810;6.418;2022-12-18T00:31:26;-7.40;99.90
12115;DHT22;6121;49.810;6.418;2022-12-18T00:33:54;-7.40;99.90
12115;DHT22;6121;49.810;6.418;2022-12-18T00:36:23;-7.40;99.90
12115;DHT22;6121;49.810;6.418;2022-12-18T00:38:49;-7.70;99.90
12115;DHT22;6121;49.810;6.418;2022-12-18T00:41:16;-7.80;99.90
12115;DHT22;6121;49.810;6.418;2022-12-18T00:44:03;-7.90;99.90
12115;DHT22;6121;49.810;6.418;2022-12-18T00:46:29;-8.00;99.90
12115;DHT22;6121;49.810;6.418;2022-12-18T00:48:55;-7.70;99.90
12115;DHT22;6121;49.810;6.418;2022-12-18T00:51:20;-7.70;99.90
12115;DHT22;6121;49.810;6.418;2022-12-18T00:53:46;-8.00;99.90
12115;DHT22;6121;49.810;6.418;2022-12-18T00:56:12;-8.00;99.90
12115;DHT22;6121;49.810;6.418;2022-12-18T00:58:37;-8.10;99.90
12115;DHT22;6121;49.810;6.418;2022-12-18T01:01:06;-8.30;99.90
12115;DHT22;6121;49.810;6.418;2022-12-18T01:03:32;-8.20;99.90
12115;DHT22;6121;49.810;6.418;2022-12-18T01:05:58;-8.20;99.90
12115;DHT22;6121;49.810;6.418;2022-12-18T01:08:24;-8.20;99.90
12115;DHT22;6121;49.810;6.418;2022-12-18T01:10:50;-8.00;99.90
12115;DHT22;6121;49.810;6.418;2022-12-18T01:13:15;-7.90;99.90
12115;DHT22;6121;49.810;6.418;2022-12-18T01:15:48;-7.80;99.90
12115;DHT22;6121;49.810;6.418;2022-12-18T01:18:14;-7.70;99.90
12115;DHT22;6121;49.810;6.418;2022-12-18T01:20:40;-7.90;99.90
12115;DHT22;6121;49.810;6.418;2022-12-18T01:23:05;-7.80;99.90
12115;DHT22;6121;49.810;6.418;2022-12-18T01:25:31;-7.80;99.90
12115;DHT22;6121;49.810;6.418;2022-12-18T01:27:56;-7.70;99.90
12115;DHT22;6121;49.810;6.418;2022-12-18T01:30:22;-7.70;99.90
12115;DHT22;6121;49.810;6.418;2022-12-18T01:32:48;-7.90;99.90
12115;DHT22;6121;49.810;6.418;2022-12-18T01:35:13;-8.00;99.90
12115;DHT22;6121;49.810;6.418;2022-12-18T01:37:39;-8.10;99.90
12115;DHT22;6121;49.810;6.418;2022-12-18T01:40:05;-8.20;99.90
12115;DHT22;6121;49.810;6.418;2022-12-18T01:42:31;-8.30;99.90
12115;DHT22;6121;49.810;6.418;2022-12-18T01:47:51;-8.70;99.90
12115;DHT22;6121;49.810;6.418;2022-12-18T01:53:02;-8.50;99.90
12115;DHT22;6121;49.810;6.418;2022-12-18T01:55:31;-8.40;99.90
12115;DHT22;6121;49.810;6.418;2022-12-18T01:57:59;-8.50;99.90
12115;DHT22;6121;49.810;6.418;2022-12-18T02:00:27;-8.50;99.90
12115;DHT22;6121;49.810;6.418;2022-12-18T02:02:54;-8.40;99.90
12115;DHT22;6121;49.810;6.418;2022-12-18T02:05:47;-8.30;99.90
12115;DHT22;6121;49.810;6.418;2022-12-18T02:08:22;-8.40;99.90
12115;DHT22;6121;49.810;6.418;2022-12-18T02:18:43;-8.70;99.90
12115;DHT22;6121;49.810;6.418;2022-12-18T02:21:45;-8.60;99.90
12115;DHT22;6121;49.810;6.418;2022-12-18T02:24:42;-8.50;99.90
12115;DHT22;6121;49.810;6.418;2022-12-18T02:27:10;-8.60;99.90
12115;DHT22;6121;49.810;6.418;2022-12-18T02:29:44;-8.80;99.90
12115;DHT22;6121;49.810;6.418;2022-12-18T02:32:20;-8.90;99.90
12115;DHT22;6121;49.810;6.418;2022-12-18T02:34:48;-8.80;99.90
12115;DHT22;6121;49.810;6.418;2022-12-18T02:37:18;-8.60;99.90
12115;DHT22;6121;49.810;6.418;2022-12-18T02:39:46;-8.80;99.90
12115;DHT22;6121;49.810;6.418;2022-12-18T02:42:13;-8.90;99.90
12115;DHT22;6121;49.810;6.418;2022-12-18T02:44:57;-8.90;99.90
12115;DHT22;6121;49.810;6.418;2022-12-18T02:47:27;-8.90;99.90
12115;DHT22;6121;49.810;6.418;2022-12-18T02:55:35;-8.60;99.90
12115;DHT22;6121;49.810;6.418;2022-12-18T03:00:41;-8.90;99.90
12115;DHT22;6121;49.810;6.418;2022-12-18T03:05:51;-8.80;99.90
12115;DHT22;6121;49.810;6.418;2022-12-18T03:08:33;-8.80;99.90
12115;DHT22;6121;49.810;6.418;2022-12-18T03:11:05;-8.90;99.90
12115;DHT22;6121;49.810;6.418;2022-12-18T03:13:54;-8.70;99.90
12115;DHT22;6121;49.810;6.418;2022-12-18T03:16:27;-8.70;99.90
12115;DHT22;6121;49.810;6.418;2022-12-18T03:19:01;-8.70;99.90
12115;DHT22;6121;49.810;6.418;2022-12-18T03:21:41;-8.90;99.90
12115;DHT22;6121;49.810;6.418;2022-12-18T03:24:09;-8.70;99.90
12115;DHT22;6121;49.810;6.418;2022-12-18T03:26:38;-8.80;99.90
12115;DHT22;6121;49.810;6.418;2022-12-18T03:29:14;-9.00;99.90
12115;DHT22;6121;49.810;6.418;2022-12-18T03:31:47;-9.00;99.90
12115;DHT22;6121;49.810;6.418;2022-12-18T03:34:21;-8.90;99.90
12115;DHT22;6121;49.810;6.418;2022-12-18T03:36:49;-8.90;99.90
12115;DHT22;6121;49.810;6.418;2022-12-18T03:39:14;-9.10;99.90
12115;DHT22;6121;49.810;6.418;2022-12-18T03:47:18;-9.10;99.90
12115;DHT22;6121;49.810;6.418;2022-12-18T03:52:53;-9.20;99.90
12115;DHT22;6121;49.810;6.418;2022-12-18T03:55:23;-9.20;99.90
12115;DHT22;6121;49.810;6.418;2022-12-18T03:57:52;-9.10;99.90
12115;DHT22;6121;49.810;6.418;2022-12-18T04:00:19;-9.20;99.90
12115;DHT22;6121;49.810;6.418;2022-12-18T04:02:49;-9.10;99.90
12115;DHT22;6121;49.810;6.418;2022-12-18T04:05:17;-9.20;99.90
12115;DHT22;6121;49.810;6.418;2022-12-18T04:07:44;-9.10;99.90
12115;DHT22;6121;49.810;6.418;2022-12-18T04:10:13;-9.00;99.90
12115;DHT22;6121;49.810;6.418;2022-12-18T04:12:39;-9.10;99.90
12115;DHT22;6121;49.810;6.418;2022-12-18T04:15:05;-9.00;99.90
12115;DHT22;6121;49.810;6.418;2022-12-18T04:17:31;-9.30;99.90
12115;DHT22;6121;49.810;6.418;2022-12-18T04:19:57;-9.40;99.90
12115;DHT22;6121;49.810;6.418;2022-12-18T04:22:22;-9.40;99.90
12115;DHT22;6121;49.810;6.418;2022-12-18T04:24:48;-9.40;99.90
12115;DHT22;6121;49.810;6.418;2022-12-18T04:27:13;-9.40;99.90
12115;DHT22;6121;49.810;6.418;2022-12-18T04:29:39;-9.50;99.90
12115;DHT22;6121;49.810;6.418;2022-12-18T04:32:05;-9.50;99.90
12115;DHT22;6121;49.810;6.418;2022-12-18T04:34:30;-9.40;99.90
12115;DHT22;6121;49.810;6.418;2022-12-18T04:36:56;-9.40;99.90
12115;DHT22;6121;49.810;6.418;2022-12-18T04:39:22;-9.40;99.90
12115;DHT22;6121;49.810;6.418;2022-12-18T04:41:47;-9.30;99.90
12115;DHT22;6121;49.810;6.418;2022-12-18T04:44:13;-9.30;99.90
12115;DHT22;6121;49.810;6.418;2022-12-18T04:46:39;-9.30;99.90
12115;DHT22;6121;49.810;6.418;2022-12-18T04:49:05;-9.20;99.90
12115;DHT22;6121;49.810;6.418;2022-12-18T04:51:30;-9.20;99.90
12115;DHT22;6121;49.810;6.418;2022-12-18T04:53:56;-9.20;99.90
12115;DHT22;6121;49.810;6.418;2022-12-18T04:56:21;-9.20;99.90
12115;DHT22;6121;49.810;6.418;2022-12-18T04:58:47;-9.30;99.90
12115;DHT22;6121;49.810;6.418;2022-12-18T05:01:15;-9.30;99.90
12115;DHT22;6121;49.810;6.418;2022-12-18T05:03:41;-9.40;99.90
12115;DHT22;6121;49.810;6.418;2022-12-18T05:06:07;-9.40;99.90
12115;DHT22;6121;49.810;6.418;2022-12-18T05:08:34;-9.30;99.90
12115;DHT22;6121;49.810;6.418;2022-12-18T05:11:01;-9.40;99.90
12115;DHT22;6121;49.810;6.418;2022-12-18T05:13:27;-9.40;99.90
12115;DHT22;6121;49.810;6.418;2022-12-18T05:15:54;-9.40;99.90
12115;DHT22;6121;49.810;6.418;2022-12-18T05:18:20;-9.40;99.90
12115;DHT22;6121;49.810;6.418;2022-12-18T05:20:45;-9.30;99.90
12115;DHT22;6121;49.810;6.418;2022-12-18T05:23:11;-9.30;99.90
12115;DHT22;6121;49.810;6.418;2022-12-18T05:25:36;-9.50;99.90
12115;DHT22;6121;49.810;6.418;2022-12-18T05:28:02;-9.60;99.90
12115;DHT22;6121;49.810;6.418;2022-12-18T05:30:28;-9.60;99.90
12115;DHT22;6121;49.810;6.418;2022-12-18T05:32:54;-9.50;99.90
12115;DHT22;6121;49.810;6.418;2022-12-18T05:35:19;-9.60;99.90
12115;DHT22;6121;49.810;6.418;2022-12-18T05:37:45;-9.70;99.90
12115;DHT22;6121;49.810;6.418;2022-12-18T05:40:11;-9.70;99.90
12115;DHT22;6121;49.810;6.418;2022-12-18T05:42:37;-9.70;99.90
12115;DHT22;6121;49.810;6.418;2022-12-18T05:45:03;-9.60;99.90
12115;DHT22;6121;49.810;6.418;2022-12-18T05:47:29;-9.60;99.90
12115;DHT22;6121;49.810;6.418;2022-12-18T05:49:55;-9.50;99.90
12115;DHT22;6121;49.810;6.418;2022-12-18T05:52:20;-9.50;99.90
12115;DHT22;6121;49.810;6.418;2022-12-18T05:54:46;-9.60;99.90
12115;DHT22;6121;49.810;6.418;2022-12-18T05:57:12;-9.60;99.90
12115;DHT22;6121;49.810;6.418;2022-12-18T05:59:37;-9.50;99.90
12115;DHT22;6121;49.810;6.418;2022-12-18T06:02:03;-9.50;99.90
12115;DHT22;6121;49.810;6.418;2022-12-18T06:04:28;-9.60;99.90
12115;DHT22;6121;49.810;6.418;2022-12-18T06:06:54;-9.60;99.90
12115;DHT22;6121;49.810;6.418;2022-12-18T06:09:20;-9.60;99.90
12115;DHT22;6121;49.810;6.418;2022-12-18T06:11:45;-9.60;99.90
12115;DHT22;6121;49.810;6.418;2022-12-18T06:14:11;-9.60;99.90
12115;DHT22;6121;49.810;6.418;2022-12-18T06:16:36;-9.80;99.90
12115;DHT22;6121;49.810;6.418;2022-12-18T06:19:04;-9.90;99.90
12115;DHT22;6121;49.810;6.418;2022-12-18T06:21:32;-9.80;99.90
12115;DHT22;6121;49.810;6.418;2022-12-18T06:23:58;-9.70;99.90
12115;DHT22;6121;49.810;6.418;2022-12-18T06:26:24;-9.60;99.90
12115;DHT22;6121;49.810;6.418;2022-12-18T06:28:50;-9.70;99.90
12115;DHT22;6121;49.810;6.418;2022-12-18T06:31:16;-9.70;99.90
12115;DHT22;6121;49.810;6.418;2022-12-18T06:33:41;-9.70;99.90
12115;DHT22;6121;49.810;6.418;2022-12-18T06:36:11;-9.70;99.90
12115;DHT22;6121;49.810;6.418;2022-12-18T06:38:40;-9.70;99.90
12115;DHT22;6121;49.810;6.418;2022-12-18T06:41:11;-9.60;99.90
12115;DHT22;6121;49.810;6.418;2022-12-18T06:43:37;-9.70;99.90
12115;DHT22;6121;49.810;6.418;2022-12-18T06:46:03;-9.70;99.90
12115;DHT22;6121;49.810;6.418;2022-12-18T06:48:30;-9.80;99.90
12115;DHT22;6121;49.810;6.418;2022-12-18T06:50:55;-9.80;99.90
12115;DHT22;6121;49.810;6.418;2022-12-18T06:53:21;-9.70;99.90
12115;DHT22;6121;49.810;6.418;2022-12-18T06:55:47;-9.70;99.90
12115;DHT22;6121;49.810;6.418;2022-12-18T06:58:13;-9.70;99.90
12115;DHT22;6121;49.810;6.418;2022-12-18T07:00:39;-9.60;99.90
12115;DHT22;6121;49.810;6.418;2022-12-18T07:03:04;-9.50;99.90
12115;DHT22;6121;49.810;6.418;2022-12-18T07:05:30;-9.50;99.90
12115;DHT22;6121;49.810;6.418;2022-12-18T07:07:55;-9.70;99.90
12115;DHT22;6121;49.810;6.418;2022-12-18T07:10:21;-9.70;99.90
12115;DHT22;6121;49.810;6.418;2022-12-18T07:12:47;-9.70;99.90
12115;DHT22;6121;49.810;6.418;2022-12-18T07:15:12;-9.80;99.90
12115;DHT22;6121;49.810;6.418;2022-12-18T07:17:38;-9.80;99.90
12115;DHT22;6121;49.810;6.418;2022-12-18T07:20:04;-9.70;99.90
12115;DHT22;6121;49.810;6.418;2022-12-18T07:22:29;-9.70;99.90
12115;DHT22;6121;49.810;6.418;2022-12-18T07:24:55;-9.60;99.90
12115;DHT22;6121;49.810;6.418;2022-12-18T07:27:22;-9.50;99.90
12115;DHT22;6121;49.810;6.418;2022-12-18T07:29:47;-9.50;99.90
12115;DHT22;6121;49.810;6.418;2022-12-18T07:32:13;-9.40;99.90
12115;DHT22;6121;49.810;6.418;2022-12-18T07:34:39;-9.50;99.90
12115;DHT22;6121;49.810;6.418;2022-12-18T07:37:04;-9.50;99.90
12115;DHT22;6121;49.810;6.418;2022-12-18T07:39:30;-9.40;99.90
12115;DHT22;6121;49.810;6.418;2022-12-18T07:41:56;-9.30;99.90
12115;DHT22;6121;49.810;6.418;2022-12-18T07:44:41;-9.30;99.90
12115;DHT22;6121;49.810;6.418;2022-12-18T07:47:06;-9.20;99.90
12115;DHT22;6121;49.810;6.418;2022-12-18T07:49:32;-9.20;99.90
12115;DHT22;6121;49.810;6.418;2022-12-18T07:51:57;-9.10;99.90
12115;DHT22;6121;49.810;6.418;2022-12-18T07:54:24;-9.10;99.90
12115;DHT22;6121;49.810;6.418;2022-12-18T07:56:50;-9.10;99.90
12115;DHT22;6121;49.810;6.418;2022-12-18T07:59:16;-9.00;99.90
12115;DHT22;6121;49.810;6.418;2022-12-18T08:01:41;-9.10;99.90
12115;DHT22;6121;49.810;6.418;2022-12-18T08:04:07;-9.10;99.90
12115;DHT22;6121;49.810;6.418;2022-12-18T08:06:33;-9.10;99.90
12115;DHT22;6121;49.810;6.418;2022-12-18T08:08:58;-9.00;99.90
12115;DHT22;6121;49.810;6.418;2022-12-18T08:11:26;-9.20;99.90
12115;DHT22;6121;49.810;6.418;2022-12-18T08:13:53;-9.10;99.90
12115;DHT22;6121;49.810;6.418;2022-12-18T08:16:19;-9.30;99.90
12115;DHT22;6121;49.810;6.418;2022-12-18T08:18:45;-9.30;99.90
12115;DHT22;6121;49.810;6.418;2022-12-18T08:21:19;-9.00;99.90
12115;DHT22;6121;49.810;6.418;2022-12-18T08:23:47;-8.90;99.90
12115;DHT22;6121;49.810;6.418;2022-12-18T08:26:13;-9.10;99.90
12115;DHT22;6121;49.810;6.418;2022-12-18T08:28:40;-9.10;99.90
12115;DHT22;6121;49.810;6.418;2022-12-18T08:31:06;-9.10;99.90
12115;DHT22;6121;49.810;6.418;2022-12-18T08:33:32;-9.00;99.90
12115;DHT22;6121;49.810;6.418;2022-12-18T08:35:59;-9.00;99.90
12115;DHT22;6121;49.810;6.418;2022-12-18T08:38:25;-9.00;99.90
12115;DHT22;6121;49.810;6.418;2022-12-18T08:40:58;-9.00;99.90
12115;DHT22;6121;49.810;6.418;2022-12-18T08:43:25;-8.80;99.90
12115;DHT22;6121;49.810;6.418;2022-12-18T08:46:09;-8.60;99.90
12115;DHT22;6121;49.810;6.418;2022-12-18T08:48:35;-8.30;99.90
12115;DHT22;6121;49.810;6.418;2022-12-18T08:51:01;-8.20;99.90
12115;DHT22;6121;49.810;6.418;2022-12-18T08:53:27;-7.70;99.90
12115;DHT22;6121;49.810;6.418;2022-12-18T08:55:53;-7.30;99.90
12115;DHT22;6121;49.810;6.418;2022-12-18T08:58:19;-7.10;99.90
12115;DHT22;6121;49.810;6.418;2022-12-18T09:00:45;-7.50;99.90
12115;DHT22;6121;49.810;6.418;2022-12-18T09:03:15;-7.30;99.90
12115;DHT22;6121;49.810;6.418;2022-12-18T09:05:41;-7.20;99.90
12115;DHT22;6121;49.810;6.418;2022-12-18T09:08:06;-7.00;99.90
12115;DHT22;6121;49.810;6.418;2022-12-18T09:10:32;-6.60;99.90
12115;DHT22;6121;49.810;6.418;2022-12-18T09:12:58;-4.90;99.90
12115;DHT22;6121;49.810;6.418;2022-12-18T09:15:24;-3.90;99.90
12115;DHT22;6121;49.810;6.418;2022-12-18T09:17:49;-2.40;99.90
12115;DHT22;6121;49.810;6.418;2022-12-18T09:20:16;-0.60;99.60
12115;DHT22;6121;49.810;6.418;2022-12-18T09:22:42;0.00;97.10
12115;DHT22;6121;49.810;6.418;2022-12-18T09:25:07;-0.20;95.90
12115;DHT22;6121;49.810;6.418;2022-12-18T09:27:34;-0.10;95.00
12115;DHT22;6121;49.810;6.418;2022-12-18T09:30:00;-0.20;94.40
12115;DHT22;6121;49.810;6.418;2022-12-18T09:32:25;0.20;94.20
12115;DHT22;6121;49.810;6.418;2022-12-18T09:34:51;0.90;93.10
12115;DHT22;6121;49.810;6.418;2022-12-18T09:37:17;0.90;91.80
12115;DHT22;6121;49.810;6.418;2022-12-18T09:39:43;-0.20;92.30
12115;DHT22;6121;49.810;6.418;2022-12-18T09:42:25;-0.60;93.00
12115;DHT22;6121;49.810;6.418;2022-12-18T09:44:53;-0.30;92.50
12115;DHT22;6121;49.810;6.418;2022-12-18T09:49:51;-0.80;93.10
12115;DHT22;6121;49.810;6.418;2022-12-18T09:52:26;-0.70;93.20
12115;DHT22;6121;49.810;6.418;2022-12-18T09:57:39;-0.40;93.60
12115;DHT22;6121;49.810;6.418;2022-12-18T10:00:17;-0.80;93.90
12115;DHT22;6121;49.810;6.418;2022-12-18T10:02:43;-0.30;94.00
12115;DHT22;6121;49.810;6.418;2022-12-18T10:05:30;-0.10;93.40
12115;DHT22;6121;49.810;6.418;2022-12-18T10:08:45;-0.70;93.40
12115;DHT22;6121;49.810;6.418;2022-12-18T10:11:23;-1.60;93.90
12115;DHT22;6121;49.810;6.418;2022-12-18T10:14:09;-1.10;94.60
12115;DHT22;6121;49.810;6.418;2022-12-18T10:19:25;-0.50;94.50
12115;DHT22;6121;49.810;6.418;2022-12-18T10:27:26;-0.60;94.80
12115;DHT22;6121;49.810;6.418;2022-12-18T10:29:52;-0.80;95.00
12115;DHT22;6121;49.810;6.418;2022-12-18T10:32:23;-0.20;95.40
12115;DHT22;6121;49.810;6.418;2022-12-18T10:34:52;0.00;94.70
12115;DHT22;6121;49.810;6.418;2022-12-18T10:37:21;0.00;94.50
12115;DHT22;6121;49.810;6.418;2022-12-18T10:42:31;-0.70;95.20
12115;DHT22;6121;49.810;6.418;2022-12-18T10:45:16;0.00;95.40
12115;DHT22;6121;49.810;6.418;2022-12-18T10:47:47;0.30;95.00
12115;DHT22;6121;49.810;6.418;2022-12-18T10:50:29;0.90;94.70
12115;DHT22;6121;49.810;6.418;2022-12-18T10:53:04;0.70;94.20
12115;DHT22;6121;49.810;6.418;2022-12-18T10:55:38;0.90;94.50
12115;DHT22;6121;49.810;6.418;2022-12-18T10:58:21;-0.10;94.60
12115;DHT22;6121;49.810;6.418;2022-12-18T11:01:12;-0.10;95.90
12115;DHT22;6121;49.810;6.418;2022-12-18T11:03:46;0.10;95.50
12115;DHT22;6121;49.810;6.418;2022-12-18T11:06:18;0.00;95.30
12115;DHT22;6121;49.810;6.418;2022-12-18T11:08:58;-0.10;95.30
12115;DHT22;6121;49.810;6.418;2022-12-18T11:11:24;-0.50;95.60
12115;DHT22;6121;49.810;6.418;2022-12-18T11:13:59;-0.20;96.20
12115;DHT22;6121;49.810;6.418;2022-12-18T11:16:26;0.30;95.70
12115;DHT22;6121;49.810;6.418;2022-12-18T11:18:52;-0.20;96.30
12115;DHT22;6121;49.810;6.418;2022-12-18T11:21:18;0.30;96.20
12115;DHT22;6121;49.810;6.418;2022-12-18T11:23:52;0.70;95.80
12115;DHT22;6121;49.810;6.418;2022-12-18T11:26:19;0.20;95.70
12115;DHT22;6121;49.810;6.418;2022-12-18T11:29:07;-0.10;96.90
12115;DHT22;6121;49.810;6.418;2022-12-18T11:31:33;-0.40;97.00
12115;DHT22;6121;49.810;6.418;2022-12-18T11:34:25;-0.20;97.00
12115;DHT22;6121;49.810;6.418;2022-12-18T11:36:54;-0.40;97.70
12115;DHT22;6121;49.810;6.418;2022-12-18T11:39:30;-0.40;97.50
12115;DHT22;6121;49.810;6.418;2022-12-18T11:42:24;-1.00;97.90
12115;DHT22;6121;49.810;6.418;2022-12-18T11:45:23;-0.90;98.80
12115;DHT22;6121;49.810;6.418;2022-12-18T11:47:56;-0.90;98.40
12115;DHT22;6121;49.810;6.418;2022-12-18T11:53:01;-1.30;99.50
12115;DHT22;6121;49.810;6.418;2022-12-18T11:55:39;-1.00;99.60
12115;DHT22;6121;49.810;6.418;2022-12-18T12:01:06;-1.00;99.60
12115;DHT22;6121;49.810;6.418;2022-12-18T12:06:23;-1.20;99.90
12115;DHT22;6121;49.810;6.418;2022-12-18T12:09:23;-1.10;99.90
12115;DHT22;6121;49.810;6.418;2022-12-18T12:17:37;-1.40;99.90
12115;DHT22;6121;49.810;6.418;2022-12-18T12:20:42;-1.60;99.90
12115;DHT22;6121;49.810;6.418;2022-12-18T12:25:52;-1.80;99.90
12115;DHT22;6121;49.810;6.418;2022-12-18T12:31:01;-1.90;99.90
12115;DHT22;6121;49.810;6.418;2022-12-18T12:33:56;-1.70;99.90
12115;DHT22;6121;49.810;6.418;2022-12-18T12:39:36;-2.00;99.90
12115;DHT22;6121;49.810;6.418;2022-12-18T12:45:18;-1.60;99.90
12115;DHT22;6121;49.810;6.418;2022-12-18T12:47:45;-1.70;99.90
12115;DHT22;6121;49.810;6.418;2022-12-18T12:50:16;-1.50;99.90
12115;DHT22;6121;49.810;6.418;2022-12-18T12:52:51;-1.60;99.90
12115;DHT22;6121;49.810;6.418;2022-12-18T12:55:21;-1.70;99.90
12115;DHT22;6121;49.810;6.418;2022-12-18T13:00:46;-1.70;99.90
12115;DHT22;6121;49.810;6.418;2022-12-18T13:03:45;-1.60;99.90
12115;DHT22;6121;49.810;6.418;2022-12-18T13:09:12;-1.70;99.90
12115;DHT22;6121;49.810;6.418;2022-12-18T13:11:45;-1.40;99.90
12115;DHT22;6121;49.810;6.418;2022-12-18T13:14:36;-1.60;99.90
12115;DHT22;6121;49.810;6.418;2022-12-18T13:19:52;-1.40;99.90
12115;DHT22;6121;49.810;6.418;2022-12-18T13:25:02;-1.20;99.90
12115;DHT22;6121;49.810;6.418;2022-12-18T13:38:32;-1.10;99.90
12115;DHT22;6121;49.810;6.418;2022-12-18T13:41:00;-1.30;99.90
12115;DHT22;6121;49.810;6.418;2022-12-18T13:46:04;-1.20;99.90
12115;DHT22;6121;49.810;6.418;2022-12-18T13:48:33;-1.30;99.90
12115;DHT22;6121;49.810;6.418;2022-12-18T13:51:09;-1.30;99.90
12115;DHT22;6121;49.810;6.418;2022-12-18T13:53:51;-1.60;99.90
12115;DHT22;6121;49.810;6.418;2022-12-18T13:56:21;-1.60;99.90
12115;DHT22;6121;49.810;6.418;2022-12-18T13:59:10;-1.40;99.90
12115;DHT22;6121;49.810;6.418;2022-12-18T14:01:36;-1.30;99.90
12115;DHT22;6121;49.810;6.418;2022-12-18T14:06:47;-1.30;99.90
12115;DHT22;6121;49.810;6.418;2022-12-18T14:09:18;-1.50;99.90
12115;DHT22;6121;49.810;6.418;2022-12-18T14:11:49;-1.60;99.90
12115;DHT22;6121;49.810;6.418;2022-12-18T14:14:17;-1.60;99.90
12115;DHT22;6121;49.810;6.418;2022-12-18T14:16:43;-1.60;99.90
12115;DHT22;6121;49.810;6.418;2022-12-18T14:19:14;-1.50;99.90
12115;DHT22;6121;49.810;6.418;2022-12-18T14:21:40;-1.40;99.90
12115;DHT22;6121;49.810;6.418;2022-12-18T14:26:39;-1.40;99.90
12115;DHT22;6121;49.810;6.418;2022-12-18T14:31:46;-1.50;99.90
12115;DHT22;6121;49.810;6.418;2022-12-18T14:34:28;-1.40;99.90
12115;DHT22;6121;49.810;6.418;2022-12-18T14:36:56;-1.40;99.90
12115;DHT22;6121;49.810;6.418;2022-12-18T14:39:22;-1.40;99.90
12115;DHT22;6121;49.810;6.418;2022-12-18T14:41:49;-1.30;99.90
12115;DHT22;6121;49.810;6.418;2022-12-18T14:44:15;-1.20;99.90
12115;DHT22;6121;49.810;6.418;2022-12-18T14:46:45;-1.20;99.90
12115;DHT22;6121;49.810;6.418;2022-12-18T14:49:18;-1.40;99.90
12115;DHT22;6121;49.810;6.418;2022-12-18T14:51:51;-1.50;99.90
12115;DHT22;6121;49.810;6.418;2022-12-18T14:54:19;-1.50;99.90
12115;DHT22;6121;49.810;6.418;2022-12-18T14:56:59;-1.40;99.90
12115;DHT22;6121;49.810;6.418;2022-12-18T14:59:27;-1.40;99.90
12115;DHT22;6121;49.810;6.418;2022-12-18T15:02:21;-1.40;99.90
12115;DHT22;6121;49.810;6.418;2022-12-18T15:05:14;-1.40;99.90
12115;DHT22;6121;49.810;6.418;2022-12-18T15:07:49;-1.30;99.90
12115;DHT22;6121;49.810;6.418;2022-12-18T15:10:21;-1.30;99.90
12115;DHT22;6121;49.810;6.418;2022-12-18T15:12:49;-1.30;99.90
12115;DHT22;6121;49.810;6.418;2022-12-18T15:25:43;-1.50;99.90
12115;DHT22;6121;49.810;6.418;2022-12-18T15:28:39;-1.50;99.90
12115;DHT22;6121;49.810;6.418;2022-12-18T15:36:14;-1.60;99.90
12115;DHT22;6121;49.810;6.418;2022-12-18T15:38:40;-1.60;99.90
12115;DHT22;6121;49.810;6.418;2022-12-18T15:41:11;-1.60;99.90
12115;DHT22;6121;49.810;6.418;2022-12-18T15:43:38;-1.60;99.90
12115;DHT22;6121;49.810;6.418;2022-12-18T15:46:06;-1.70;99.90
12115;DHT22;6121;49.810;6.418;2022-12-18T15:48:34;-1.80;99.90
12115;DHT22;6121;49.810;6.418;2022-12-18T15:51:00;-1.70;99.90
12115;DHT22;6121;49.810;6.418;2022-12-18T15:53:30;-1.70;99.90
12115;DHT22;6121;49.810;6.418;2022-12-18T15:55:58;-1.90;99.90
12115;DHT22;6121;49.810;6.418;2022-12-18T15:58:42;-1.90;99.90
12115;DHT22;6121;49.810;6.418;2022-12-18T16:01:09;-1.90;99.90
12115;DHT22;6121;49.810;6.418;2022-12-18T16:03:35;-1.90;99.90
12115;DHT22;6121;49.810;6.418;2022-12-18T16:06:01;-2.00;99.90
12115;DHT22;6121;49.810;6.418;2022-12-18T16:08:28;-2.00;99.90
12115;DHT22;6121;49.810;6.418;2022-12-18T16:10:55;-2.00;99.90
12115;DHT22;6121;49.810;6.418;2022-12-18T16:13:21;-2.20;99.90
12115;DHT22;6121;49.810;6.418;2022-12-18T16:15:47;-2.10;99.90
12115;DHT22;6121;49.810;6.418;2022-12-18T16:18:12;-2.00;99.90
12115;DHT22;6121;49.810;6.418;2022-12-18T16:20:38;-2.10;99.90
12115;DHT22;6121;49.810;6.418;2022-12-18T16:23:04;-2.10;99.90
12115;DHT22;6121;49.810;6.418;2022-12-18T16:25:30;-1.90;99.90
12115;DHT22;6121;49.810;6.418;2022-12-18T16:27:56;-1.90;99.90
12115;DHT22;6121;49.810;6.418;2022-12-18T16:30:28;-2.10;99.90
12115;DHT22;6121;49.810;6.418;2022-12-18T16:32:59;-2.00;99.90
12115;DHT22;6121;49.810;6.418;2022-12-18T16:35:25;-2.00;99.90
12115;DHT22;6121;49.810;6.418;2022-12-18T16:37:52;-2.00;99.90
12115;DHT22;6121;49.810;6.418;2022-12-18T16:40:17;-2.20;99.90
12115;DHT22;6121;49.810;6.418;2022-12-18T16:42:44;-2.30;99.90
12115;DHT22;6121;49.810;6.418;2022-12-18T16:45:13;-2.40;99.90
12115;DHT22;6121;49.810;6.418;2022-12-18T16:47:39;-2.20;99.90
12115;DHT22;6121;49.810;6.418;2022-12-18T16:50:05;-2.20;99.90
12115;DHT22;6121;49.810;6.418;2022-12-18T16:52:31;-2.20;99.90
12115;DHT22;6121;49.810;6.418;2022-12-18T16:54:57;-2.30;99.90
12115;DHT22;6121;49.810;6.418;2022-12-18T16:57:23;-2.40;99.90
12115;DHT22;6121;49.810;6.418;2022-12-18T16:59:48;-2.30;99.90
12115;DHT22;6121;49.810;6.418;2022-12-18T17:02:22;-2.20;99.90
12115;DHT22;6121;49.810;6.418;2022-12-18T17:04:48;-2.30;99.90
12115;DHT22;6121;49.810;6.418;2022-12-18T17:07:14;-2.30;99.90
12115;DHT22;6121;49.810;6.418;2022-12-18T17:09:41;-2.30;99.90
12115;DHT22;6121;49.810;6.418;2022-12-18T17:12:07;-2.30;99.90
12115;DHT22;6121;49.810;6.418;2022-12-18T17:14:33;-2.20;99.90
12115;DHT22;6121;49.810;6.418;2022-12-18T17:16:59;-2.20;99.90
12115;DHT22;6121;49.810;6.418;2022-12-18T17:19:26;-2.20;99.90
12115;DHT22;6121;49.810;6.418;2022-12-18T17:21:52;-2.10;99.90
12115;DHT22;6121;49.810;6.418;2022-12-18T17:24:18;-2.00;99.90
12115;DHT22;6121;49.810;6.418;2022-12-18T17:26:44;-2.00;99.90
12115;DHT22;6121;49.810;6.418;2022-12-18T17:29:13;-2.00;99.90
12115;DHT22;6121;49.810;6.418;2022-12-18T17:31:39;-2.00;99.90
12115;DHT22;6121;49.810;6.418;2022-12-18T17:34:05;-2.20;99.90
12115;DHT22;6121;49.810;6.418;2022-12-18T17:36:31;-2.20;99.90
12115;DHT22;6121;49.810;6.418;2022-12-18T17:38:59;-2.20;99.90
12115;DHT22;6121;49.810;6.418;2022-12-18T17:41:26;-2.20;99.90
12115;DHT22;6121;49.810;6.418;2022-12-18T17:43:57;-2.10;99.90
12115;DHT22;6121;49.810;6.418;2022-12-18T17:46:24;-2.10;99.90
12115;DHT22;6121;49.810;6.418;2022-12-18T17:48:50;-2.00;99.90
12115;DHT22;6121;49.810;6.418;2022-12-18T17:51:16;-2.10;99.90
12115;DHT22;6121;49.810;6.418;2022-12-18T17:53:42;-2.10;99.90
12115;DHT22;6121;49.810;6.418;2022-12-18T17:56:11;-2.20;99.90
12115;DHT22;6121;49.810;6.418;2022-12-18T17:58:38;-2.30;99.90
12115;DHT22;6121;49.810;6.418;2022-12-18T18:01:04;-2.40;99.90
12115;DHT22;6121;49.810;6.418;2022-12-18T18:03:31;-2.40;99.90
12115;DHT22;6121;49.810;6.418;2022-12-18T18:06:00;-2.20;99.90